createdAt,value
2023-03-02T06:35:50.448Z,1.40
2023-03-02T06:38:20.655Z,0.96
2023-03-02T06:40:50.331Z,0.83
2023-03-02T06:43:20.061Z,0.82
2023-03-02T06:45:51.212Z,0.88
2023-03-02T06:48:21.120Z,-0.05
2023-03-02T06:50:53.345Z,0.75
2023-03-02T06:53:23.515Z,0.81
2023-03-02T06:55:53.431Z,0.88
2023-03-02T06:58:23.055Z,0.59
2023-03-02T07:00:52.730Z,0.88
2023-03-02T07:03:22.576Z,0.78
2023-03-02T07:05:54.927Z,0.80
2023-03-02T07:08:24.548Z,0.95
2023-03-02T07:10:54.230Z,0.41
2023-03-02T07:13:23.985Z,0.75
2023-03-02T07:15:54.894Z,0.77
2023-03-02T07:18:24.548Z,0.90
2023-03-02T07:20:56.861Z,0.56
2023-03-02T07:23:26.827Z,0.29
2023-03-02T07:25:56.490Z,0.59
2023-03-02T07:28:26.448Z,0.87
2023-03-02T07:30:56.668Z,0.88
2023-03-02T07:33:26.452Z,0.98
2023-03-02T07:35:58.930Z,0.61
2023-03-02T07:38:28.630Z,0.57
2023-03-02T07:40:58.345Z,0.51
2023-03-02T07:43:29.425Z,0.54
2023-03-02T07:46:01.909Z,0.73
2023-03-02T07:48:31.704Z,0.88
2023-03-02T07:51:06.007Z,0.98
2023-03-02T07:53:35.876Z,1.12
2023-03-02T07:56:09.722Z,1.17
2023-03-02T07:58:39.866Z,1.18
2023-03-02T08:01:09.589Z,0.81
2023-03-02T08:03:39.429Z,0.91
2023-03-02T08:06:15.240Z,1.61
2023-03-02T08:08:44.895Z,1.37
2023-03-02T08:11:16.460Z,0.99
2023-03-02T08:13:47.001Z,0.64
2023-03-02T08:16:18.449Z,1.15
2023-03-02T08:18:48.096Z,1.15
2023-03-02T08:21:25.876Z,1.28
2023-03-02T08:23:55.984Z,1.34
2023-03-02T08:26:25.788Z,1.31
2023-03-02T08:28:55.424Z,1.22
2023-03-02T08:31:25.072Z,1.05
2023-03-02T08:33:54.804Z,1.21
2023-03-02T08:36:26.987Z,1.49
2023-03-02T08:38:57.281Z,1.43
2023-03-02T08:41:26.945Z,1.49
2023-03-02T08:43:56.897Z,0.96
2023-03-02T08:46:26.548Z,1.46
2023-03-02T08:48:56.239Z,1.43
2023-03-02T08:51:29.473Z,1.44
2023-03-02T08:53:59.196Z,1.28
2023-03-02T08:56:30.731Z,1.31
2023-03-02T08:59:02.852Z,1.42
2023-03-02T09:01:34.430Z,1.40
2023-03-02T09:04:05.257Z,1.38
2023-03-02T09:06:39.912Z,1.32
2023-03-02T09:09:10.243Z,1.29
2023-03-02T09:11:39.919Z,1.23
2023-03-02T09:14:09.612Z,1.03
2023-03-02T09:16:39.920Z,1.01
2023-03-02T09:19:09.943Z,1.56
2023-03-02T09:21:42.249Z,1.42
2023-03-02T09:24:12.175Z,1.37
2023-03-02T09:26:41.828Z,1.55
2023-03-02T09:29:11.761Z,1.52
2023-03-02T09:31:41.437Z,1.65
2023-03-02T09:34:11.070Z,1.76
2023-03-02T09:36:43.273Z,1.84
2023-03-02T09:39:13.452Z,1.56
2023-03-02T09:42:06.281Z,1.67
2023-03-02T09:44:48.969Z,1.68
2023-03-02T09:47:35.223Z,1.67
2023-03-02T09:50:17.553Z,1.60
2023-03-02T09:52:55.272Z,1.68
2023-03-02T09:55:30.189Z,1.73
2023-03-02T09:58:02.539Z,1.64
2023-03-02T10:00:35.392Z,1.79
2023-03-02T10:03:17.019Z,1.48
2023-03-02T10:05:48.780Z,1.81
2023-03-02T10:08:23.941Z,1.52
2023-03-02T10:11:00.674Z,1.52
2023-03-02T10:13:34.083Z,1.77
2023-03-02T10:16:15.473Z,1.80
2023-03-02T10:18:49.560Z,1.91
2023-03-02T10:21:25.501Z,1.78
2023-03-02T10:24:04.429Z,2.03
2023-03-02T10:26:42.378Z,2.04
2023-03-02T10:29:52.908Z,2.12
2023-03-02T10:32:25.310Z,2.33
2023-03-02T10:34:56.199Z,2.38
2023-03-02T10:37:27.847Z,2.34
2023-03-02T10:40:00.373Z,2.49
2023-03-02T10:42:33.712Z,2.73
2023-03-02T10:45:11.935Z,2.83
2023-03-02T10:47:41.803Z,2.92
2023-03-02T10:50:24.728Z,3.07
2023-03-02T10:52:59.995Z,3.04
2023-03-02T10:55:32.865Z,2.79
2023-03-02T10:58:05.819Z,2.60
2023-03-02T11:00:37.077Z,2.61
2023-03-02T11:03:20.707Z,2.46
2023-03-02T11:05:50.377Z,2.43
2023-03-02T11:08:21.807Z,2.65
2023-03-02T11:11:00.928Z,2.58
2023-03-02T11:13:34.229Z,2.74
2023-03-02T11:16:05.440Z,2.91
2023-03-02T11:18:39.623Z,3.03
2023-03-02T11:21:13.412Z,2.77
2023-03-02T11:23:54.925Z,2.94
2023-03-02T11:26:28.950Z,2.61
2023-03-02T11:29:03.348Z,2.85
2023-03-02T11:31:40.278Z,3.04
2023-03-02T11:34:18.830Z,3.00
2023-03-02T11:36:58.844Z,3.09
2023-03-02T11:39:46.454Z,2.94
2023-03-02T11:42:32.182Z,2.99
2023-03-02T11:45:05.438Z,3.13
2023-03-02T11:47:36.374Z,2.96
2023-03-02T11:50:08.941Z,2.90
2023-03-02T11:52:42.003Z,3.04
2023-03-02T11:55:20.388Z,2.97
2023-03-02T11:57:55.163Z,2.98
2023-03-02T12:00:33.911Z,3.05
2023-03-02T12:03:08.490Z,2.99
2023-03-02T12:05:40.784Z,3.27
2023-03-02T12:08:38.110Z,3.31
2023-03-02T12:11:10.683Z,3.22
2023-03-02T12:13:41.557Z,3.08
2023-03-02T12:16:22.805Z,3.22
2023-03-02T12:18:52.899Z,3.12
2023-03-02T12:21:24.634Z,3.11
2023-03-02T12:24:04.092Z,3.31
2023-03-02T12:26:37.574Z,3.37
2023-03-02T12:29:26.209Z,3.49
2023-03-02T12:31:58.303Z,3.39
2023-03-02T12:34:37.743Z,3.15
2023-03-02T12:37:16.094Z,3.17
2023-03-02T12:40:24.811Z,3.53
2023-03-02T12:43:21.925Z,3.63
2023-03-02T12:46:07.055Z,3.70
2023-03-02T12:48:45.390Z,3.64
2023-03-02T12:51:22.186Z,3.99
2023-03-02T12:53:56.667Z,3.95
2023-03-02T12:56:27.453Z,3.70
2023-03-02T12:58:59.727Z,3.81
2023-03-02T13:01:32.216Z,3.81
2023-03-02T13:04:02.438Z,3.83
2023-03-02T13:06:35.076Z,3.78
2023-03-02T13:09:04.888Z,3.90
2023-03-02T13:11:37.805Z,3.88
2023-03-02T13:14:21.492Z,3.96
2023-03-02T13:16:59.816Z,4.07
2023-03-02T13:19:31.962Z,3.92
2023-03-02T13:22:03.038Z,3.77
2023-03-02T13:24:37.743Z,4.05
2023-03-02T13:27:09.614Z,3.91
2023-03-02T13:29:41.901Z,3.98
2023-03-02T13:32:20.595Z,3.87
2023-03-02T13:34:52.866Z,3.91
2023-03-02T13:37:39.242Z,3.84
2023-03-02T13:40:31.701Z,3.67
2023-03-02T13:43:01.799Z,3.96
2023-03-02T13:45:35.437Z,4.13
2023-03-02T13:48:17.329Z,4.05
2023-03-02T13:50:55.916Z,3.92
2023-03-02T13:53:25.838Z,4.11
2023-03-02T13:55:56.839Z,3.95
2023-03-02T13:58:28.239Z,3.95
2023-03-02T14:01:00.495Z,3.90
2023-03-02T14:03:32.115Z,3.88
2023-03-02T14:06:02.539Z,4.06
2023-03-02T14:08:32.132Z,3.88
2023-03-02T14:11:03.533Z,3.98
2023-03-02T14:13:39.544Z,4.06
2023-03-02T14:16:14.838Z,3.94
2023-03-02T14:18:46.978Z,3.93
2023-03-02T14:21:18.863Z,4.06
2023-03-02T14:23:49.082Z,3.90
2023-03-02T14:26:29.880Z,3.76
2023-03-02T14:29:05.794Z,3.80
2023-03-02T14:31:38.801Z,3.53
2023-03-02T14:34:08.511Z,3.83
2023-03-02T14:36:38.798Z,3.48
2023-03-02T14:39:22.389Z,3.93
2023-03-02T14:41:54.650Z,3.56
2023-03-02T14:44:25.338Z,3.78
2023-03-02T14:46:58.315Z,3.54
2023-03-02T14:49:28.730Z,3.91
2023-03-02T14:52:02.840Z,3.95
2023-03-02T14:54:39.032Z,4.09
2023-03-02T14:57:14.202Z,3.95
2023-03-02T14:59:43.860Z,3.84
2023-03-02T15:02:25.204Z,3.94
2023-03-02T15:04:57.432Z,3.96
2023-03-02T15:07:29.113Z,3.79
2023-03-02T15:09:59.626Z,3.43
2023-03-02T15:12:29.416Z,3.39
2023-03-02T15:14:59.121Z,3.62
2023-03-02T15:17:31.486Z,3.34
2023-03-02T15:20:01.086Z,3.47
2023-03-02T15:22:30.717Z,3.29
2023-03-02T15:25:00.390Z,3.34
2023-03-02T15:27:30.093Z,3.40
2023-03-02T15:29:59.765Z,3.13
2023-03-02T15:32:31.996Z,2.75
2023-03-02T15:35:01.601Z,2.97
2023-03-02T15:37:31.263Z,3.09
2023-03-02T15:40:00.862Z,3.30
2023-03-02T15:42:30.440Z,3.30
2023-03-02T15:45:00.024Z,3.48
2023-03-02T15:47:33.579Z,3.50
2023-03-02T15:50:03.321Z,3.17
2023-03-02T15:52:33.127Z,3.12
2023-03-02T15:55:02.961Z,3.06
2023-03-02T15:57:32.718Z,2.56
2023-03-02T16:00:05.440Z,3.08
2023-03-02T16:02:37.881Z,2.73
2023-03-02T16:05:08.459Z,2.80
2023-03-02T16:07:38.457Z,2.78
2023-03-02T16:10:15.202Z,2.20
2023-03-02T16:12:44.946Z,2.70
2023-03-02T16:15:14.765Z,3.06
2023-03-02T16:17:47.686Z,3.13
2023-03-02T16:20:17.444Z,3.31
2023-03-02T16:22:47.105Z,3.30
2023-03-02T16:25:16.674Z,3.27
2023-03-02T16:27:48.176Z,3.00
2023-03-02T16:30:19.388Z,2.60
2023-03-02T16:32:52.968Z,2.76
2023-03-02T16:35:22.666Z,2.78
2023-03-02T16:37:52.316Z,2.77
2023-03-02T16:40:22.494Z,2.77
2023-03-02T16:42:52.771Z,2.59
2023-03-02T16:45:23.585Z,2.54
2023-03-02T16:47:55.923Z,2.57
2023-03-02T16:50:25.524Z,2.64
2023-03-02T16:52:55.121Z,2.71
2023-03-02T16:55:24.850Z,2.73
2023-03-02T16:57:54.514Z,2.58
2023-03-02T17:00:25.661Z,2.76
2023-03-02T17:03:01.087Z,2.65
2023-03-02T17:05:47.541Z,2.68
2023-03-02T17:08:21.781Z,2.80
2023-03-02T17:10:53.024Z,2.82
2023-03-02T17:13:22.852Z,2.66
2023-03-02T17:15:53.045Z,2.52
2023-03-02T17:18:27.501Z,2.02
2023-03-02T17:20:59.322Z,2.48
2023-03-02T17:23:31.438Z,2.48
2023-03-02T17:26:01.932Z,2.83
2023-03-02T17:28:34.722Z,2.86
2023-03-02T17:31:04.694Z,2.74
2023-03-02T17:33:37.507Z,2.52
2023-03-02T17:36:12.033Z,2.84
2023-03-02T17:38:42.227Z,2.84
2023-03-02T17:41:14.989Z,2.84
2023-03-02T17:43:45.573Z,1.95
2023-03-02T17:46:20.386Z,3.04
2023-03-02T17:48:55.258Z,2.96
2023-03-02T17:51:25.749Z,1.62
2023-03-02T17:53:56.899Z,2.84
2023-03-02T17:56:28.741Z,3.12
2023-03-02T17:59:00.487Z,2.98
2023-03-02T18:01:34.101Z,3.11
2023-03-02T18:04:11.927Z,1.99
2023-03-02T18:07:17.373Z,3.09
2023-03-02T18:10:20.808Z,1.90
2023-03-02T18:12:58.522Z,2.33
2023-03-02T18:15:31.846Z,3.03
2023-03-02T18:18:03.757Z,2.56
2023-03-02T18:20:40.174Z,2.10
2023-03-02T18:23:10.736Z,3.20
2023-03-02T18:25:44.122Z,3.25
2023-03-02T18:28:14.561Z,2.26
2023-03-02T18:30:46.348Z,2.24
2023-03-02T18:33:23.535Z,1.73
2023-03-02T18:36:08.379Z,2.36
2023-03-02T18:38:44.675Z,1.34
2023-03-02T18:41:22.012Z,2.71
2023-03-02T18:44:01.387Z,2.51
2023-03-02T18:46:47.700Z,2.58
2023-03-02T18:50:00.849Z,2.44
2023-03-02T18:53:15.465Z,1.64
2023-03-02T18:56:16.924Z,3.46
2023-03-02T18:59:55.302Z,2.73
2023-03-02T19:02:58.758Z,3.05
2023-03-02T19:05:46.105Z,3.12
2023-03-02T19:08:36.704Z,3.59
2023-03-02T19:11:23.821Z,1.74
2023-03-02T19:14:22.660Z,2.63
2023-03-02T19:17:51.765Z,2.42
2023-03-02T19:24:16.719Z,3.37
2023-03-02T19:29:43.556Z,2.99
2023-03-02T19:32:26.828Z,4.15
2023-03-02T19:35:00.371Z,4.34
2023-03-02T19:37:35.799Z,3.51
2023-03-02T19:40:15.975Z,4.05
2023-03-02T19:42:49.663Z,3.21
2023-03-02T19:45:25.652Z,4.02
2023-03-02T19:47:57.590Z,4.08
2023-03-02T19:50:29.172Z,4.28
2023-03-02T19:53:00.617Z,4.41
2023-03-02T21:00:56.495Z,4.06
2023-03-02T21:07:53.773Z,3.74
2023-03-02T21:15:09.535Z,4.79
2023-03-02T21:19:08.544Z,4.22
2023-03-02T21:22:19.614Z,4.07
2023-03-02T21:26:15.392Z,3.62
2023-03-02T21:30:07.392Z,2.81
2023-03-02T21:34:18.900Z,3.36
2023-03-02T21:38:08.479Z,4.39
